OJAQ/AQJ METAR and TAF weather

Enter ICAO airport designator
Station Type Date Time Source
OJAQ METAR 2021/05/14 06:00 UTC NOAA

OJAQ 140600Z 36007KT CAVOK 24/11 Q1013 NOSIG


Station Type Date Time Source
OJAQ Decoded METAR 2021/05/14 06:00 UTC NOAA

Aqaba Airport, Jordan (OJAQ) 29-38N 035-01E 51M
May 14, 2021 - 02:00 AM EDT / 2021.05.14 0600 UTC
Wind: from the N (360 degrees) at 8 MPH (7 KT):0
Visibility: greater than 7 mile(s):0
Temperature: 75 F (24 C)
Dew Point: 51 F (11 C)
Relative Humidity: 43%
Pressure (altimeter): 29.91 in. Hg (1013 hPa)
ob: OJAQ 140600Z 36007KT CAVOK 24/11 Q1013 NOSIG
cycle: 6

Station Type Date Time Source
OJAQ TAF 2021/05/14 06:15 UTC NOAA

TAF TAF OJAQ 140500Z 1406/1512 36015KT 7000 NSC PROB30
TEMPO 1412/1415 4000 BLDU

Example: see airport list